sensor_id;sensor_type;location;lat;lon;timestamp;P1;durP1;ratioP1;P2;durP2;ratioP2
75096;SDS011;63684;47.964;11.186;2023-02-28T00:01:13;3.03;;;2.50;;
75096;SDS011;63684;47.964;11.186;2023-02-28T00:03:39;7.43;;;2.70;;
75096;SDS011;63684;47.964;11.186;2023-02-28T00:06:05;5.07;;;2.80;;
75096;SDS011;63684;47.964;11.186;2023-02-28T00:08:31;3.00;;;2.43;;
75096;SDS011;63684;47.964;11.186;2023-02-28T00:11:00;3.27;;;2.37;;
75096;SDS011;63684;47.964;11.186;2023-02-28T00:13:43;4.27;;;2.97;;
75096;SDS011;63684;47.964;11.186;2023-02-28T00:16:16;4.10;;;2.83;;
75096;SDS011;63684;47.964;11.186;2023-02-28T00:18:45;3.27;;;2.57;;
75096;SDS011;63684;47.964;11.186;2023-02-28T00:21:12;3.07;;;2.77;;
75096;SDS011;63684;47.964;11.186;2023-02-28T00:23:38;4.27;;;2.77;;
75096;SDS011;63684;47.964;11.186;2023-02-28T00:26:03;3.10;;;2.60;;
75096;SDS011;63684;47.964;11.186;2023-02-28T00:28:29;4.03;;;2.87;;
75096;SDS011;63684;47.964;11.186;2023-02-28T00:30:57;6.70;;;3.33;;
75096;SDS011;63684;47.964;11.186;2023-02-28T00:33:25;4.00;;;3.43;;
75096;SDS011;63684;47.964;11.186;2023-02-28T00:35:50;4.30;;;2.90;;
75096;SDS011;63684;47.964;11.186;2023-02-28T00:38:16;4.53;;;2.87;;
75096;SDS011;63684;47.964;11.186;2023-02-28T00:40:41;4.13;;;2.87;;
75096;SDS011;63684;47.964;11.186;2023-02-28T00:43:07;5.07;;;3.13;;
75096;SDS011;63684;47.964;11.186;2023-02-28T00:45:32;4.17;;;3.27;;
75096;SDS011;63684;47.964;11.186;2023-02-28T00:47:58;4.63;;;2.73;;
75096;SDS011;63684;47.964;11.186;2023-02-28T00:50:23;4.80;;;3.23;;
75096;SDS011;63684;47.964;11.186;2023-02-28T00:52:49;3.83;;;3.00;;
75096;SDS011;63684;47.964;11.186;2023-02-28T00:55:14;5.13;;;3.23;;
75096;SDS011;63684;47.964;11.186;2023-02-28T00:57:40;4.10;;;2.80;;
75096;SDS011;63684;47.964;11.186;2023-02-28T01:00:06;3.73;;;2.73;;
75096;SDS011;63684;47.964;11.186;2023-02-28T01:02:32;4.40;;;2.93;;
75096;SDS011;63684;47.964;11.186;2023-02-28T01:04:58;4.77;;;3.37;;
75096;SDS011;63684;47.964;11.186;2023-02-28T01:07:23;6.33;;;2.80;;
75096;SDS011;63684;47.964;11.186;2023-02-28T01:09:49;8.20;;;2.73;;
75096;SDS011;63684;47.964;11.186;2023-02-28T01:12:14;4.67;;;3.47;;
75096;SDS011;63684;47.964;11.186;2023-02-28T01:14:40;5.37;;;3.47;;
75096;SDS011;63684;47.964;11.186;2023-02-28T01:17:06;4.23;;;3.00;;
75096;SDS011;63684;47.964;11.186;2023-02-28T01:19:32;6.47;;;3.60;;
75096;SDS011;63684;47.964;11.186;2023-02-28T01:22:00;5.77;;;3.43;;
75096;SDS011;63684;47.964;11.186;2023-02-28T01:24:29;6.13;;;4.07;;
75096;SDS011;63684;47.964;11.186;2023-02-28T01:26:55;4.90;;;3.20;;
75096;SDS011;63684;47.964;11.186;2023-02-28T01:29:21;4.23;;;2.70;;
75096;SDS011;63684;47.964;11.186;2023-02-28T01:31:47;4.43;;;3.23;;
75096;SDS011;63684;47.964;11.186;2023-02-28T01:34:12;4.57;;;3.20;;
75096;SDS011;63684;47.964;11.186;2023-02-28T01:36:37;3.87;;;3.13;;
75096;SDS011;63684;47.964;11.186;2023-02-28T01:39:03;4.57;;;3.17;;
75096;SDS011;63684;47.964;11.186;2023-02-28T01:41:29;7.20;;;3.57;;
75096;SDS011;63684;47.964;11.186;2023-02-28T01:44:06;4.70;;;3.57;;
75096;SDS011;63684;47.964;11.186;2023-02-28T01:46:32;3.03;;;2.73;;
75096;SDS011;63684;47.964;11.186;2023-02-28T01:49:04;4.30;;;3.33;;
75096;SDS011;63684;47.964;11.186;2023-02-28T01:51:33;5.60;;;3.63;;
75096;SDS011;63684;47.964;11.186;2023-02-28T01:54:08;6.70;;;3.50;;
75096;SDS011;63684;47.964;11.186;2023-02-28T01:56:40;5.60;;;4.13;;
75096;SDS011;63684;47.964;11.186;2023-02-28T01:59:12;4.43;;;3.20;;
75096;SDS011;63684;47.964;11.186;2023-02-28T02:01:40;7.77;;;3.80;;
75096;SDS011;63684;47.964;11.186;2023-02-28T02:04:05;5.90;;;2.90;;
75096;SDS011;63684;47.964;11.186;2023-02-28T02:06:34;5.00;;;3.43;;
75096;SDS011;63684;47.964;11.186;2023-02-28T02:09:03;4.40;;;3.90;;
75096;SDS011;63684;47.964;11.186;2023-02-28T02:11:28;3.77;;;3.07;;
75096;SDS011;63684;47.964;11.186;2023-02-28T02:38:35;4.60;;;3.80;;
75096;SDS011;63684;47.964;11.186;2023-02-28T02:46:34;5.03;;;3.60;;
75096;SDS011;63684;47.964;11.186;2023-02-28T02:49:03;6.40;;;3.97;;
75096;SDS011;63684;47.964;11.186;2023-02-28T02:51:32;4.57;;;3.50;;
75096;SDS011;63684;47.964;11.186;2023-02-28T02:54:00;4.70;;;3.90;;
75096;SDS011;63684;47.964;11.186;2023-02-28T02:56:32;4.27;;;3.60;;
75096;SDS011;63684;47.964;11.186;2023-02-28T02:59:01;6.30;;;3.80;;
75096;SDS011;63684;47.964;11.186;2023-02-28T03:01:28;7.40;;;4.07;;
75096;SDS011;63684;47.964;11.186;2023-02-28T03:04:17;4.33;;;3.73;;
75096;SDS011;63684;47.964;11.186;2023-02-28T03:06:42;4.47;;;3.80;;
75096;SDS011;63684;47.964;11.186;2023-02-28T03:09:08;5.93;;;4.23;;
75096;SDS011;63684;47.964;11.186;2023-02-28T03:11:34;5.03;;;4.00;;
75096;SDS011;63684;47.964;11.186;2023-02-28T03:17:03;6.00;;;4.43;;
75096;SDS011;63684;47.964;11.186;2023-02-28T03:26:07;4.67;;;4.07;;
75096;SDS011;63684;47.964;11.186;2023-02-28T03:31:44;5.10;;;4.60;;
75096;SDS011;63684;47.964;11.186;2023-02-28T03:37:00;6.07;;;4.43;;
75096;SDS011;63684;47.964;11.186;2023-02-28T03:39:29;7.73;;;4.60;;
75096;SDS011;63684;47.964;11.186;2023-02-28T03:41:57;9.37;;;4.90;;
75096;SDS011;63684;47.964;11.186;2023-02-28T03:44:27;9.13;;;5.13;;
75096;SDS011;63684;47.964;11.186;2023-02-28T03:47:09;5.50;;;4.40;;
75096;SDS011;63684;47.964;11.186;2023-02-28T03:49:40;6.83;;;5.20;;
75096;SDS011;63684;47.964;11.186;2023-02-28T03:52:10;4.90;;;4.40;;
75096;SDS011;63684;47.964;11.186;2023-02-28T03:54:39;7.57;;;5.07;;
75096;SDS011;63684;47.964;11.186;2023-02-28T03:57:12;6.70;;;4.90;;
75096;SDS011;63684;47.964;11.186;2023-02-28T04:00:02;8.27;;;6.07;;
75096;SDS011;63684;47.964;11.186;2023-02-28T04:02:40;8.57;;;5.07;;
75096;SDS011;63684;47.964;11.186;2023-02-28T04:05:06;7.00;;;5.03;;
75096;SDS011;63684;47.964;11.186;2023-02-28T04:07:32;7.00;;;5.43;;
75096;SDS011;63684;47.964;11.186;2023-02-28T04:09:58;10.70;;;6.40;;
75096;SDS011;63684;47.964;11.186;2023-02-28T04:12:23;8.13;;;5.97;;
75096;SDS011;63684;47.964;11.186;2023-02-28T04:14:49;8.37;;;6.40;;
75096;SDS011;63684;47.964;11.186;2023-02-28T04:17:15;8.40;;;5.77;;
75096;SDS011;63684;47.964;11.186;2023-02-28T04:19:41;8.40;;;5.47;;
75096;SDS011;63684;47.964;11.186;2023-02-28T04:22:07;10.90;;;6.27;;
75096;SDS011;63684;47.964;11.186;2023-02-28T04:24:33;9.37;;;6.73;;
75096;SDS011;63684;47.964;11.186;2023-02-28T04:26:59;7.57;;;6.13;;
75096;SDS011;63684;47.964;11.186;2023-02-28T04:29:28;9.90;;;6.17;;
75096;SDS011;63684;47.964;11.186;2023-02-28T04:31:55;6.77;;;5.73;;
75096;SDS011;63684;47.964;11.186;2023-02-28T04:34:24;8.00;;;6.13;;
75096;SDS011;63684;47.964;11.186;2023-02-28T04:36:54;9.83;;;6.13;;
75096;SDS011;63684;47.964;11.186;2023-02-28T04:39:21;7.43;;;6.07;;
75096;SDS011;63684;47.964;11.186;2023-02-28T04:41:47;11.47;;;6.63;;
75096;SDS011;63684;47.964;11.186;2023-02-28T04:44:12;8.30;;;6.00;;
75096;SDS011;63684;47.964;11.186;2023-02-28T04:46:38;11.90;;;6.70;;
75096;SDS011;63684;47.964;11.186;2023-02-28T04:49:04;9.60;;;7.10;;
75096;SDS011;63684;47.964;11.186;2023-02-28T04:51:29;9.93;;;6.33;;
75096;SDS011;63684;47.964;11.186;2023-02-28T04:53:55;8.53;;;6.97;;
75096;SDS011;63684;47.964;11.186;2023-02-28T04:56:20;9.33;;;6.50;;
75096;SDS011;63684;47.964;11.186;2023-02-28T04:58:46;12.90;;;8.47;;
75096;SDS011;63684;47.964;11.186;2023-02-28T05:01:22;11.33;;;8.17;;
75096;SDS011;63684;47.964;11.186;2023-02-28T05:03:53;11.07;;;8.03;;
75096;SDS011;63684;47.964;11.186;2023-02-28T05:06:20;13.00;;;8.50;;
75096;SDS011;63684;47.964;11.186;2023-02-28T05:08:47;12.47;;;8.50;;
75096;SDS011;63684;47.964;11.186;2023-02-28T05:13:41;10.20;;;7.83;;
75096;SDS011;63684;47.964;11.186;2023-02-28T05:16:06;10.47;;;8.23;;
75096;SDS011;63684;47.964;11.186;2023-02-28T05:18:32;12.50;;;9.43;;
75096;SDS011;63684;47.964;11.186;2023-02-28T05:20:57;15.33;;;9.50;;
75096;SDS011;63684;47.964;11.186;2023-02-28T05:23:23;11.60;;;9.17;;
75096;SDS011;63684;47.964;11.186;2023-02-28T05:25:49;12.67;;;9.37;;
75096;SDS011;63684;47.964;11.186;2023-02-28T05:28:14;14.87;;;10.07;;
75096;SDS011;63684;47.964;11.186;2023-02-28T05:30:40;12.87;;;9.50;;
75096;SDS011;63684;47.964;11.186;2023-02-28T05:33:05;13.90;;;10.70;;
75096;SDS011;63684;47.964;11.186;2023-02-28T05:35:31;13.37;;;9.90;;
75096;SDS011;63684;47.964;11.186;2023-02-28T05:37:56;13.80;;;8.77;;
75096;SDS011;63684;47.964;11.186;2023-02-28T05:40:22;13.67;;;9.93;;
75096;SDS011;63684;47.964;11.186;2023-02-28T05:42:50;15.73;;;11.07;;
75096;SDS011;63684;47.964;11.186;2023-02-28T05:45:15;13.60;;;10.37;;
75096;SDS011;63684;47.964;11.186;2023-02-28T05:47:42;14.50;;;10.90;;
75096;SDS011;63684;47.964;11.186;2023-02-28T05:50:07;15.77;;;10.47;;
75096;SDS011;63684;47.964;11.186;2023-02-28T05:52:34;16.33;;;11.47;;
75096;SDS011;63684;47.964;11.186;2023-02-28T05:55:00;19.27;;;11.57;;
75096;SDS011;63684;47.964;11.186;2023-02-28T05:57:25;16.53;;;11.43;;
75096;SDS011;63684;47.964;11.186;2023-02-28T05:59:50;14.57;;;10.57;;
75096;SDS011;63684;47.964;11.186;2023-02-28T06:02:16;15.13;;;11.17;;
75096;SDS011;63684;47.964;11.186;2023-02-28T06:04:42;19.13;;;11.93;;
75096;SDS011;63684;47.964;11.186;2023-02-28T06:07:08;20.83;;;12.70;;
75096;SDS011;63684;47.964;11.186;2023-02-28T06:09:34;16.33;;;12.07;;
75096;SDS011;63684;47.964;11.186;2023-02-28T06:12:00;13.77;;;10.87;;
75096;SDS011;63684;47.964;11.186;2023-02-28T06:14:28;15.17;;;11.67;;
75096;SDS011;63684;47.964;11.186;2023-02-28T06:16:56;16.23;;;11.53;;
75096;SDS011;63684;47.964;11.186;2023-02-28T06:19:23;14.73;;;11.37;;
75096;SDS011;63684;47.964;11.186;2023-02-28T06:21:51;14.80;;;10.37;;
75096;SDS011;63684;47.964;11.186;2023-02-28T06:24:20;18.60;;;11.40;;
75096;SDS011;63684;47.964;11.186;2023-02-28T06:26:47;15.07;;;11.67;;
75096;SDS011;63684;47.964;11.186;2023-02-28T06:29:13;14.73;;;10.83;;
75096;SDS011;63684;47.964;11.186;2023-02-28T06:31:42;13.77;;;10.53;;
75096;SDS011;63684;47.964;11.186;2023-02-28T06:34:09;14.43;;;10.60;;
75096;SDS011;63684;47.964;11.186;2023-02-28T06:36:36;17.27;;;11.17;;
75096;SDS011;63684;47.964;11.186;2023-02-28T06:39:02;15.47;;;11.80;;
75096;SDS011;63684;47.964;11.186;2023-02-28T06:41:28;13.37;;;10.50;;
75096;SDS011;63684;47.964;11.186;2023-02-28T06:43:53;16.10;;;11.23;;
75096;SDS011;63684;47.964;11.186;2023-02-28T06:46:19;19.63;;;12.80;;
75096;SDS011;63684;47.964;11.186;2023-02-28T06:48:45;16.37;;;12.03;;
75096;SDS011;63684;47.964;11.186;2023-02-28T06:51:14;18.87;;;12.63;;
75096;SDS011;63684;47.964;11.186;2023-02-28T06:53:41;17.43;;;11.77;;
75096;SDS011;63684;47.964;11.186;2023-02-28T06:56:08;16.03;;;12.07;;
75096;SDS011;63684;47.964;11.186;2023-02-28T06:58:35;16.50;;;11.87;;
75096;SDS011;63684;47.964;11.186;2023-02-28T07:01:00;18.17;;;11.53;;
75096;SDS011;63684;47.964;11.186;2023-02-28T07:03:26;16.87;;;11.57;;
75096;SDS011;63684;47.964;11.186;2023-02-28T07:05:52;16.43;;;12.20;;
75096;SDS011;63684;47.964;11.186;2023-02-28T07:08:17;21.17;;;11.87;;
75096;SDS011;63684;47.964;11.186;2023-02-28T07:10:42;16.47;;;11.77;;
75096;SDS011;63684;47.964;11.186;2023-02-28T07:13:09;16.33;;;12.10;;
75096;SDS011;63684;47.964;11.186;2023-02-28T07:15:35;16.27;;;12.43;;
75096;SDS011;63684;47.964;11.186;2023-02-28T07:18:01;17.83;;;12.57;;
75096;SDS011;63684;47.964;11.186;2023-02-28T07:20:28;17.67;;;12.70;;
75096;SDS011;63684;47.964;11.186;2023-02-28T07:22:54;17.27;;;11.97;;
75096;SDS011;63684;47.964;11.186;2023-02-28T07:25:22;18.30;;;11.53;;
75096;SDS011;63684;47.964;11.186;2023-02-28T07:27:48;16.40;;;12.03;;
75096;SDS011;63684;47.964;11.186;2023-02-28T07:30:14;14.47;;;11.20;;
75096;SDS011;63684;47.964;11.186;2023-02-28T07:32:39;15.97;;;11.70;;
75096;SDS011;63684;47.964;11.186;2023-02-28T07:35:05;17.20;;;12.50;;
75096;SDS011;63684;47.964;11.186;2023-02-28T07:37:30;14.63;;;11.03;;
75096;SDS011;63684;47.964;11.186;2023-02-28T07:40:05;16.03;;;11.53;;
75096;SDS011;63684;47.964;11.186;2023-02-28T07:42:33;14.57;;;10.23;;
75096;SDS011;63684;47.964;11.186;2023-02-28T07:45:02;16.67;;;11.23;;
75096;SDS011;63684;47.964;11.186;2023-02-28T07:47:30;18.50;;;11.47;;
75096;SDS011;63684;47.964;11.186;2023-02-28T07:49:56;16.33;;;10.93;;
75096;SDS011;63684;47.964;11.186;2023-02-28T07:52:22;14.80;;;12.03;;
75096;SDS011;63684;47.964;11.186;2023-02-28T07:54:49;16.20;;;11.53;;
75096;SDS011;63684;47.964;11.186;2023-02-28T07:57:14;15.70;;;11.50;;
75096;SDS011;63684;47.964;11.186;2023-02-28T07:59:40;15.50;;;11.00;;
75096;SDS011;63684;47.964;11.186;2023-02-28T08:02:05;16.57;;;11.90;;
75096;SDS011;63684;47.964;11.186;2023-02-28T08:04:31;16.23;;;11.43;;
75096;SDS011;63684;47.964;11.186;2023-02-28T08:06:57;17.47;;;11.80;;
75096;SDS011;63684;47.964;11.186;2023-02-28T08:09:22;14.77;;;11.30;;
75096;SDS011;63684;47.964;11.186;2023-02-28T08:11:48;15.00;;;11.07;;
75096;SDS011;63684;47.964;11.186;2023-02-28T08:14:13;13.43;;;10.67;;
75096;SDS011;63684;47.964;11.186;2023-02-28T08:16:39;16.37;;;11.77;;
75096;SDS011;63684;47.964;11.186;2023-02-28T08:19:04;16.43;;;11.57;;
75096;SDS011;63684;47.964;11.186;2023-02-28T08:21:29;15.93;;;11.70;;
75096;SDS011;63684;47.964;11.186;2023-02-28T08:23:55;14.33;;;11.07;;
75096;SDS011;63684;47.964;11.186;2023-02-28T08:26:21;13.60;;;10.63;;
75096;SDS011;63684;47.964;11.186;2023-02-28T08:28:47;16.67;;;11.80;;
75096;SDS011;63684;47.964;11.186;2023-02-28T08:31:13;15.33;;;12.37;;
75096;SDS011;63684;47.964;11.186;2023-02-28T08:33:40;17.50;;;12.40;;
75096;SDS011;63684;47.964;11.186;2023-02-28T08:36:06;13.33;;;11.13;;
75096;SDS011;63684;47.964;11.186;2023-02-28T08:38:34;14.17;;;11.53;;
75096;SDS011;63684;47.964;11.186;2023-02-28T08:41:02;16.93;;;12.23;;
75096;SDS011;63684;47.964;11.186;2023-02-28T08:43:31;16.20;;;12.53;;
75096;SDS011;63684;47.964;11.186;2023-02-28T08:45:56;15.20;;;11.77;;
75096;SDS011;63684;47.964;11.186;2023-02-28T08:48:22;15.17;;;12.13;;
75096;SDS011;63684;47.964;11.186;2023-02-28T08:51:02;16.47;;;11.47;;
75096;SDS011;63684;47.964;11.186;2023-02-28T08:53:29;15.53;;;11.40;;
75096;SDS011;63684;47.964;11.186;2023-02-28T08:55:59;18.73;;;11.93;;
75096;SDS011;63684;47.964;11.186;2023-02-28T08:58:25;15.77;;;12.77;;
75096;SDS011;63684;47.964;11.186;2023-02-28T09:00:51;16.53;;;12.40;;
75096;SDS011;63684;47.964;11.186;2023-02-28T09:03:17;15.53;;;11.57;;
75096;SDS011;63684;47.964;11.186;2023-02-28T09:05:55;14.30;;;11.43;;
75096;SDS011;63684;47.964;11.186;2023-02-28T09:08:23;13.97;;;11.30;;
75096;SDS011;63684;47.964;11.186;2023-02-28T09:10:51;14.83;;;11.43;;
75096;SDS011;63684;47.964;11.186;2023-02-28T09:13:17;15.57;;;11.10;;
75096;SDS011;63684;47.964;11.186;2023-02-28T09:15:43;16.30;;;12.00;;
75096;SDS011;63684;47.964;11.186;2023-02-28T09:18:09;13.77;;;11.03;;
75096;SDS011;63684;47.964;11.186;2023-02-28T09:20:37;16.10;;;11.50;;
75096;SDS011;63684;47.964;11.186;2023-02-28T09:23:06;15.80;;;11.10;;
75096;SDS011;63684;47.964;11.186;2023-02-28T09:25:32;17.33;;;12.13;;
75096;SDS011;63684;47.964;11.186;2023-02-28T09:27:58;16.87;;;11.37;;
75096;SDS011;63684;47.964;11.186;2023-02-28T09:30:25;14.80;;;11.13;;
75096;SDS011;63684;47.964;11.186;2023-02-28T09:32:50;15.40;;;11.63;;
75096;SDS011;63684;47.964;11.186;2023-02-28T09:35:20;14.63;;;10.77;;
75096;SDS011;63684;47.964;11.186;2023-02-28T09:37:47;14.73;;;11.10;;
75096;SDS011;63684;47.964;11.186;2023-02-28T09:40:13;15.53;;;11.43;;
75096;SDS011;63684;47.964;11.186;2023-02-28T09:42:39;16.17;;;11.43;;
75096;SDS011;63684;47.964;11.186;2023-02-28T09:45:06;14.77;;;11.20;;
75096;SDS011;63684;47.964;11.186;2023-02-28T09:47:42;17.57;;;12.27;;
75096;SDS011;63684;47.964;11.186;2023-02-28T09:52:42;14.80;;;11.50;;
75096;SDS011;63684;47.964;11.186;2023-02-28T09:57:47;13.03;;;10.77;;
75096;SDS011;63684;47.964;11.186;2023-02-28T10:00:19;12.80;;;10.13;;
75096;SDS011;63684;47.964;11.186;2023-02-28T10:05:20;16.07;;;11.33;;
75096;SDS011;63684;47.964;11.186;2023-02-28T10:10:42;12.00;;;10.00;;
75096;SDS011;63684;47.964;11.186;2023-02-28T10:16:48;15.33;;;11.30;;
75096;SDS011;63684;47.964;11.186;2023-02-28T10:19:23;13.20;;;10.40;;
75096;SDS011;63684;47.964;11.186;2023-02-28T10:22:33;14.03;;;10.60;;
75096;SDS011;63684;47.964;11.186;2023-02-28T10:25:37;15.00;;;11.27;;
75096;SDS011;63684;47.964;11.186;2023-02-28T10:28:01;13.60;;;11.13;;
75096;SDS011;63684;47.964;11.186;2023-02-28T10:30:30;15.23;;;11.63;;
75096;SDS011;63684;47.964;11.186;2023-02-28T10:32:56;15.57;;;11.00;;
75096;SDS011;63684;47.964;11.186;2023-02-28T10:35:25;13.47;;;10.43;;
75096;SDS011;63684;47.964;11.186;2023-02-28T10:37:55;13.37;;;9.73;;
75096;SDS011;63684;47.964;11.186;2023-02-28T10:42:56;12.97;;;10.67;;
75096;SDS011;63684;47.964;11.186;2023-02-28T10:45:22;15.40;;;11.00;;
75096;SDS011;63684;47.964;11.186;2023-02-28T10:50:42;13.43;;;10.80;;
75096;SDS011;63684;47.964;11.186;2023-02-28T10:53:17;16.70;;;10.83;;
75096;SDS011;63684;47.964;11.186;2023-02-28T10:56:03;14.90;;;10.23;;
75096;SDS011;63684;47.964;11.186;2023-02-28T11:00:56;13.90;;;11.60;;
75096;SDS011;63684;47.964;11.186;2023-02-28T11:03:24;13.30;;;10.77;;
75096;SDS011;63684;47.964;11.186;2023-02-28T11:05:57;14.80;;;11.13;;
75096;SDS011;63684;47.964;11.186;2023-02-28T11:08:23;14.40;;;11.47;;
75096;SDS011;63684;47.964;11.186;2023-02-28T11:10:56;13.60;;;11.23;;
75096;SDS011;63684;47.964;11.186;2023-02-28T11:13:32;19.87;;;10.97;;
75096;SDS011;63684;47.964;11.186;2023-02-28T11:15:59;12.67;;;10.00;;
75096;SDS011;63684;47.964;11.186;2023-02-28T11:18:33;12.23;;;10.30;;
75096;SDS011;63684;47.964;11.186;2023-02-28T11:21:06;13.80;;;11.20;;
75096;SDS011;63684;47.964;11.186;2023-02-28T11:23:33;13.93;;;11.00;;
75096;SDS011;63684;47.964;11.186;2023-02-28T11:26:02;13.90;;;11.27;;
75096;SDS011;63684;47.964;11.186;2023-02-28T11:28:31;14.17;;;11.97;;
75096;SDS011;63684;47.964;11.186;2023-02-28T11:31:33;19.77;;;11.33;;
75096;SDS011;63684;47.964;11.186;2023-02-28T11:33:54;17.93;;;11.20;;
75096;SDS011;63684;47.964;11.186;2023-02-28T11:38:51;17.63;;;11.50;;
75096;SDS011;63684;47.964;11.186;2023-02-28T11:51:50;14.70;;;11.63;;
75096;SDS011;63684;47.964;11.186;2023-02-28T11:57:32;15.73;;;11.63;;
75096;SDS011;63684;47.964;11.186;2023-02-28T12:05:40;14.00;;;11.23;;
75096;SDS011;63684;47.964;11.186;2023-02-28T12:27:13;12.43;;;10.43;;
75096;SDS011;63684;47.964;11.186;2023-02-28T12:29:51;15.10;;;11.97;;
75096;SDS011;63684;47.964;11.186;2023-02-28T12:33:03;13.90;;;10.93;;
75096;SDS011;63684;47.964;11.186;2023-02-28T12:37:45;16.30;;;11.17;;
75096;SDS011;63684;47.964;11.186;2023-02-28T12:40:15;13.50;;;11.00;;
75096;SDS011;63684;47.964;11.186;2023-02-28T12:42:45;18.50;;;11.37;;
75096;SDS011;63684;47.964;11.186;2023-02-28T12:45:17;13.57;;;10.40;;
75096;SDS011;63684;47.964;11.186;2023-02-28T12:47:45;15.17;;;11.33;;
75096;SDS011;63684;47.964;11.186;2023-02-28T12:50:11;13.17;;;10.60;;
75096;SDS011;63684;47.964;11.186;2023-02-28T12:55:13;14.17;;;10.30;;
75096;SDS011;63684;47.964;11.186;2023-02-28T12:57:50;13.53;;;10.80;;
75096;SDS011;63684;47.964;11.186;2023-02-28T13:00:22;12.67;;;10.53;;
75096;SDS011;63684;47.964;11.186;2023-02-28T13:03:08;13.80;;;10.63;;
75096;SDS011;63684;47.964;11.186;2023-02-28T13:06:10;12.53;;;10.23;;
75096;SDS011;63684;47.964;11.186;2023-02-28T13:08:53;12.30;;;9.20;;
75096;SDS011;63684;47.964;11.186;2023-02-28T13:11:25;12.60;;;10.60;;
75096;SDS011;63684;47.964;11.186;2023-02-28T13:13:58;12.63;;;10.60;;
75096;SDS011;63684;47.964;11.186;2023-02-28T13:17:01;10.87;;;9.40;;
75096;SDS011;63684;47.964;11.186;2023-02-28T13:19:31;11.63;;;9.80;;
75096;SDS011;63684;47.964;11.186;2023-02-28T13:21:58;13.60;;;10.40;;
75096;SDS011;63684;47.964;11.186;2023-02-28T13:29:37;12.10;;;10.43;;
75096;SDS011;63684;47.964;11.186;2023-02-28T13:39:45;12.10;;;10.80;;
75096;SDS011;63684;47.964;11.186;2023-02-28T13:48:28;15.03;;;12.27;;
75096;SDS011;63684;47.964;11.186;2023-02-28T13:55:31;13.37;;;11.17;;
75096;SDS011;63684;47.964;11.186;2023-02-28T13:58:09;14.57;;;11.57;;
75096;SDS011;63684;47.964;11.186;2023-02-28T14:11:53;12.93;;;11.00;;
75096;SDS011;63684;47.964;11.186;2023-02-28T14:17:00;12.17;;;10.43;;
75096;SDS011;63684;47.964;11.186;2023-02-28T14:19:27;13.87;;;12.33;;
75096;SDS011;63684;47.964;11.186;2023-02-28T14:25:28;13.03;;;10.83;;
75096;SDS011;63684;47.964;11.186;2023-02-28T14:30:51;17.77;;;11.43;;
75096;SDS011;63684;47.964;11.186;2023-02-28T14:33:35;14.03;;;10.90;;
75096;SDS011;63684;47.964;11.186;2023-02-28T14:36:17;14.33;;;11.20;;
75096;SDS011;63684;47.964;11.186;2023-02-28T14:41:22;16.70;;;11.87;;
75096;SDS011;63684;47.964;11.186;2023-02-28T14:46:42;14.13;;;12.00;;
75096;SDS011;63684;47.964;11.186;2023-02-28T14:49:24;14.17;;;11.83;;
75096;SDS011;63684;47.964;11.186;2023-02-28T14:54:55;15.73;;;13.00;;
75096;SDS011;63684;47.964;11.186;2023-02-28T14:57:39;14.37;;;11.07;;
75096;SDS011;63684;47.964;11.186;2023-02-28T15:02:38;17.00;;;12.70;;
75096;SDS011;63684;47.964;11.186;2023-02-28T15:07:35;15.63;;;11.67;;
75096;SDS011;63684;47.964;11.186;2023-02-28T15:12:58;16.57;;;13.23;;
75096;SDS011;63684;47.964;11.186;2023-02-28T15:18:06;15.73;;;11.93;;
75096;SDS011;63684;47.964;11.186;2023-02-28T15:20:32;16.13;;;11.90;;
75096;SDS011;63684;47.964;11.186;2023-02-28T15:22:58;15.13;;;11.90;;
75096;SDS011;63684;47.964;11.186;2023-02-28T15:25:24;16.27;;;12.23;;
75096;SDS011;63684;47.964;11.186;2023-02-28T15:27:51;13.90;;;11.63;;
75096;SDS011;63684;47.964;11.186;2023-02-28T15:30:20;14.43;;;11.50;;
75096;SDS011;63684;47.964;11.186;2023-02-28T15:33:17;13.20;;;11.23;;
75096;SDS011;63684;47.964;11.186;2023-02-28T15:35:47;12.83;;;11.43;;
75096;SDS011;63684;47.964;11.186;2023-02-28T15:38:14;16.83;;;11.90;;
75096;SDS011;63684;47.964;11.186;2023-02-28T15:40:41;15.13;;;11.67;;
75096;SDS011;63684;47.964;11.186;2023-02-28T15:43:17;13.40;;;11.40;;
75096;SDS011;63684;47.964;11.186;2023-02-28T15:46:07;15.57;;;11.70;;
75096;SDS011;63684;47.964;11.186;2023-02-28T15:51:08;12.90;;;11.30;;
75096;SDS011;63684;47.964;11.186;2023-02-28T15:58:56;14.63;;;11.70;;
75096;SDS011;63684;47.964;11.186;2023-02-28T16:01:24;15.27;;;12.30;;
75096;SDS011;63684;47.964;11.186;2023-02-28T16:03:51;15.67;;;12.70;;
75096;SDS011;63684;47.964;11.186;2023-02-28T16:09:02;13.40;;;11.60;;
75096;SDS011;63684;47.964;11.186;2023-02-28T16:11:28;15.20;;;13.37;;
75096;SDS011;63684;47.964;11.186;2023-02-28T16:14:02;16.07;;;12.77;;
75096;SDS011;63684;47.964;11.186;2023-02-28T16:16:28;13.73;;;12.23;;
75096;SDS011;63684;47.964;11.186;2023-02-28T16:18:53;15.47;;;13.37;;
75096;SDS011;63684;47.964;11.186;2023-02-28T16:21:19;15.30;;;13.20;;
75096;SDS011;63684;47.964;11.186;2023-02-28T16:23:45;21.60;;;13.10;;
75096;SDS011;63684;47.964;11.186;2023-02-28T16:26:16;45.40;;;26.43;;
75096;SDS011;63684;47.964;11.186;2023-02-28T16:28:44;17.53;;;13.57;;
75096;SDS011;63684;47.964;11.186;2023-02-28T16:31:09;15.83;;;13.03;;
75096;SDS011;63684;47.964;11.186;2023-02-28T16:33:41;18.50;;;14.27;;
75096;SDS011;63684;47.964;11.186;2023-02-28T16:36:20;22.83;;;15.90;;
75096;SDS011;63684;47.964;11.186;2023-02-28T16:38:47;18.87;;;13.33;;
75096;SDS011;63684;47.964;11.186;2023-02-28T16:41:14;17.10;;;13.10;;
75096;SDS011;63684;47.964;11.186;2023-02-28T16:43:44;17.67;;;13.87;;
75096;SDS011;63684;47.964;11.186;2023-02-28T16:46:11;25.10;;;15.80;;
75096;SDS011;63684;47.964;11.186;2023-02-28T16:48:37;23.33;;;14.67;;
75096;SDS011;63684;47.964;11.186;2023-02-28T16:51:04;22.17;;;14.37;;
75096;SDS011;63684;47.964;11.186;2023-02-28T16:53:30;17.97;;;13.60;;
75096;SDS011;63684;47.964;11.186;2023-02-28T16:55:55;22.43;;;13.23;;
75096;SDS011;63684;47.964;11.186;2023-02-28T16:58:21;21.73;;;14.63;;
75096;SDS011;63684;47.964;11.186;2023-02-28T17:00:50;24.37;;;14.53;;
75096;SDS011;63684;47.964;11.186;2023-02-28T17:03:26;21.53;;;14.60;;
75096;SDS011;63684;47.964;11.186;2023-02-28T17:05:52;24.63;;;15.03;;
75096;SDS011;63684;47.964;11.186;2023-02-28T17:08:18;20.23;;;14.17;;
75096;SDS011;63684;47.964;11.186;2023-02-28T17:10:43;19.37;;;13.53;;
75096;SDS011;63684;47.964;11.186;2023-02-28T17:13:09;16.67;;;13.33;;
75096;SDS011;63684;47.964;11.186;2023-02-28T17:15:34;21.13;;;14.13;;
75096;SDS011;63684;47.964;11.186;2023-02-28T17:18:00;17.20;;;13.80;;
75096;SDS011;63684;47.964;11.186;2023-02-28T17:20:26;20.70;;;14.33;;
75096;SDS011;63684;47.964;11.186;2023-02-28T17:22:54;21.37;;;14.47;;
75096;SDS011;63684;47.964;11.186;2023-02-28T17:25:21;22.27;;;14.37;;
75096;SDS011;63684;47.964;11.186;2023-02-28T17:27:49;19.73;;;13.90;;
75096;SDS011;63684;47.964;11.186;2023-02-28T17:30:17;22.57;;;14.53;;
75096;SDS011;63684;47.964;11.186;2023-02-28T17:32:44;20.77;;;14.57;;
75096;SDS011;63684;47.964;11.186;2023-02-28T17:35:10;21.23;;;15.47;;